createdAt,value
2023-04-01T00:00:39.353Z,7.13
2023-04-01T00:03:09.352Z,7.75
2023-04-01T00:05:38.940Z,8.07
2023-04-01T00:08:08.806Z,9.77
2023-04-01T00:10:44.145Z,7.78
2023-04-01T00:13:14.139Z,9.38
2023-04-01T00:15:45.017Z,8.05
2023-04-01T00:18:15.467Z,10.55
2023-04-01T00:20:48.377Z,10.77
2023-04-01T00:23:18.153Z,12.48
2023-04-01T00:25:52.801Z,11.70
2023-04-01T00:28:23.859Z,10.32
2023-04-01T00:30:53.623Z,9.48
2023-04-01T00:33:23.175Z,11.65
2023-04-01T00:35:52.800Z,11.07
2023-04-01T00:38:22.983Z,8.50
2023-04-01T00:41:01.387Z,10.65
2023-04-01T00:43:31.525Z,14.55
2023-04-01T00:46:01.426Z,10.60
2023-04-01T00:48:34.470Z,11.93
2023-04-01T00:51:08.514Z,10.35
2023-04-01T00:53:43.036Z,11.00
2023-04-01T00:56:18.827Z,10.75
2023-04-01T00:58:55.098Z,11.27
2023-04-01T01:01:27.577Z,12.95
2023-04-01T01:03:57.327Z,11.10
2023-04-01T01:06:42.945Z,13.10
2023-04-01T01:09:34.466Z,12.63
2023-04-01T01:12:14.076Z,11.50
2023-04-01T01:14:55.544Z,12.25
2023-04-01T01:17:36.341Z,12.38
2023-04-01T01:20:36.542Z,12.32
2023-04-01T01:23:43.752Z,14.10
2023-04-01T01:26:38.376Z,10.50
2023-04-01T01:29:21.664Z,13.35
2023-04-01T01:32:02.600Z,12.00
2023-04-01T01:34:38.289Z,13.20
2023-04-01T01:37:15.782Z,11.93
2023-04-01T01:39:48.580Z,12.98
2023-04-01T01:42:22.535Z,13.82
2023-04-01T01:44:53.811Z,11.27
2023-04-01T01:47:26.145Z,12.48
2023-04-01T01:49:58.051Z,12.98
2023-04-01T01:52:32.031Z,16.02
2023-04-01T01:55:02.160Z,12.77
2023-04-01T01:57:34.446Z,12.20
2023-04-01T02:00:14.039Z,11.77
2023-04-01T02:02:44.400Z,13.38
2023-04-01T02:05:19.363Z,11.15
2023-04-01T02:07:56.647Z,11.43
2023-04-01T02:10:29.596Z,13.05
2023-04-01T02:13:05.054Z,11.90
2023-04-01T02:15:41.435Z,11.63
2023-04-01T02:18:11.905Z,11.90
2023-04-01T02:20:42.887Z,12.20
2023-04-01T02:23:15.666Z,11.35
2023-04-01T02:25:46.906Z,10.30
2023-04-01T02:28:20.612Z,12.07
2023-04-01T02:30:51.999Z,11.68
2023-04-01T02:33:23.212Z,11.10
2023-04-01T02:35:53.116Z,11.30
2023-04-01T02:38:25.712Z,9.70
2023-04-01T02:41:01.608Z,10.85
2023-04-01T02:43:31.381Z,11.40
2023-04-01T02:46:01.096Z,11.18
2023-04-01T02:48:30.894Z,8.82
2023-04-01T02:51:00.737Z,12.73
2023-04-01T02:53:32.995Z,9.98
2023-04-01T02:56:02.544Z,7.85
2023-04-01T02:58:32.104Z,9.07
2023-04-01T03:01:04.104Z,6.18
2023-04-01T03:03:35.853Z,8.50
2023-04-01T03:06:09.426Z,8.55
2023-04-01T03:08:42.087Z,9.02
2023-04-01T03:11:16.259Z,7.80
2023-04-01T03:13:46.178Z,6.55
2023-04-01T03:16:17.195Z,7.93
2023-04-01T03:18:47.077Z,12.45
2023-04-01T03:21:18.525Z,16.38
2023-04-01T03:23:50.922Z,15.18
2023-04-01T03:26:22.645Z,7.25
2023-04-01T03:28:52.568Z,7.55
2023-04-01T03:31:23.624Z,7.60
2023-04-01T03:33:53.510Z,9.43
2023-04-01T03:36:23.177Z,7.78
2023-04-01T03:38:55.551Z,10.80
2023-04-01T03:41:27.465Z,7.97
2023-04-01T03:43:57.684Z,6.43
2023-04-01T03:46:27.293Z,5.68
2023-04-01T03:48:56.869Z,6.38
2023-04-01T03:51:26.958Z,6.85
2023-04-01T03:53:59.214Z,6.30
2023-04-01T03:56:28.800Z,7.93
2023-04-01T03:58:58.356Z,5.72
2023-04-01T04:01:28.795Z,8.70
2023-04-01T04:03:58.333Z,8.10
2023-04-01T04:06:28.694Z,8.27
2023-04-01T04:09:01.021Z,6.35
2023-04-01T04:11:30.929Z,8.15
2023-04-01T04:14:00.582Z,8.77
2023-04-01T04:16:32.066Z,8.75
2023-04-01T04:19:01.697Z,9.55
2023-04-01T04:21:31.273Z,6.93
2023-04-01T04:24:04.101Z,10.20
2023-04-01T04:26:33.740Z,16.35
2023-04-01T04:29:03.633Z,7.75
2023-04-01T04:31:33.255Z,6.97
2023-04-01T04:34:07.506Z,7.20
2023-04-01T04:36:37.306Z,6.57
2023-04-01T04:39:09.449Z,6.43
2023-04-01T04:41:41.642Z,6.40
2023-04-01T04:44:11.369Z,5.97
2023-04-01T04:46:41.009Z,7.47
2023-04-01T04:49:11.242Z,7.40
2023-04-01T04:51:40.922Z,6.97
2023-04-01T04:54:13.454Z,7.35
2023-04-01T04:56:43.136Z,6.53
2023-04-01T04:59:13.732Z,8.48
2023-04-01T05:01:43.379Z,7.13
2023-04-01T05:04:12.967Z,4.85
2023-04-01T05:06:42.510Z,7.53
2023-04-01T05:09:14.637Z,7.25
2023-04-01T05:11:44.223Z,6.93
2023-04-01T05:14:17.236Z,8.52
2023-04-01T05:16:47.212Z,5.90
2023-04-01T05:19:16.970Z,9.80
2023-04-01T05:21:46.793Z,7.22
2023-04-01T05:24:18.911Z,6.75
2023-04-01T05:26:48.532Z,7.43
2023-04-01T05:29:18.120Z,6.60
2023-04-01T05:31:47.624Z,7.00
2023-04-01T05:34:20.284Z,7.90
2023-04-01T05:36:49.855Z,6.07
2023-04-01T05:39:22.040Z,8.07
2023-04-01T05:41:51.611Z,9.68
2023-04-01T05:44:21.892Z,5.97
2023-04-01T05:46:51.413Z,5.95
2023-04-01T05:49:21.212Z,8.00
2023-04-01T05:51:50.845Z,7.35
2023-04-01T05:54:23.367Z,7.32
2023-04-01T05:56:53.134Z,9.07
2023-04-01T05:59:22.686Z,8.70
2023-04-01T06:01:52.467Z,8.52
2023-04-01T06:04:24.556Z,7.32
2023-04-01T06:06:54.683Z,8.48
2023-04-01T06:09:31.451Z,8.32
2023-04-01T06:12:21.941Z,8.38
2023-04-01T06:15:05.106Z,6.47
2023-04-01T06:17:50.841Z,6.78
2023-04-01T06:20:29.424Z,7.17
2023-04-01T06:23:14.980Z,7.53
2023-04-01T06:26:06.786Z,9.85
2023-04-01T06:28:52.204Z,7.45
2023-04-01T06:31:37.233Z,8.15
2023-04-01T06:34:42.792Z,6.22
2023-04-01T06:37:24.304Z,5.68
2023-04-01T06:40:17.731Z,8.70
2023-04-01T06:43:02.402Z,8.48
2023-04-01T06:45:40.918Z,5.70
2023-04-01T06:48:32.537Z,8.30
2023-04-01T06:51:12.756Z,8.85
2023-04-01T06:53:51.469Z,9.30
2023-04-01T06:56:23.177Z,11.55
2023-04-01T06:58:59.811Z,8.80
2023-04-01T07:01:34.927Z,12.05
2023-04-01T07:04:08.994Z,11.10
2023-04-01T07:06:42.169Z,8.85
2023-04-01T07:09:17.045Z,8.07
2023-04-01T07:11:47.046Z,11.88
2023-04-01T07:14:24.664Z,11.45
2023-04-01T07:17:02.647Z,9.30
2023-04-01T07:19:38.007Z,9.15
2023-04-01T07:22:10.423Z,7.30
2023-04-01T07:24:43.319Z,9.07
2023-04-01T07:27:15.019Z,9.18
2023-04-01T07:29:47.152Z,8.68
2023-04-01T07:32:31.330Z,7.65
2023-04-01T07:35:17.159Z,8.10
2023-04-01T07:37:56.713Z,8.68
2023-04-01T07:40:34.519Z,9.82
2023-04-01T07:43:22.423Z,10.85
2023-04-01T07:46:04.181Z,9.50
2023-04-01T07:48:41.905Z,6.43
2023-04-01T07:51:17.414Z,6.72
2023-04-01T07:53:54.070Z,7.07
2023-04-01T07:56:31.392Z,8.05
2023-04-01T07:59:10.872Z,14.02
2023-04-01T08:01:48.014Z,11.70
2023-04-01T08:04:35.038Z,9.82
2023-04-01T08:07:11.984Z,9.65
2023-04-01T08:09:52.121Z,8.40
2023-04-01T08:12:33.286Z,8.43
2023-04-01T08:15:12.274Z,8.73
2023-04-01T08:17:56.483Z,8.40
2023-04-01T08:20:34.945Z,7.63
2023-04-01T08:23:10.637Z,6.47
2023-04-01T08:25:43.385Z,5.55
2023-04-01T08:28:21.320Z,8.80
2023-04-01T08:30:55.251Z,6.13
2023-04-01T08:33:30.222Z,7.15
2023-04-01T08:36:05.557Z,6.35
2023-04-01T08:38:38.725Z,7.65
2023-04-01T08:41:48.843Z,6.97
2023-04-01T08:45:01.502Z,6.45
2023-04-01T08:48:01.837Z,9.35
2023-04-01T08:51:12.219Z,8.05
2023-04-01T08:54:01.269Z,9.38
2023-04-01T08:56:37.493Z,5.82
2023-04-01T08:59:46.819Z,7.53
2023-04-01T09:02:45.591Z,7.57
2023-04-01T09:05:35.740Z,5.75
2023-04-01T09:08:21.164Z,7.68
2023-04-01T09:11:15.259Z,8.95
2023-04-01T09:14:10.157Z,8.20
2023-04-01T09:17:19.331Z,5.30
2023-04-01T09:20:06.051Z,6.93
2023-04-01T09:22:48.721Z,6.97
2023-04-01T09:25:48.331Z,5.60
2023-04-01T09:28:23.504Z,6.90
2023-04-01T09:31:14.387Z,9.83
2023-04-01T09:34:09.302Z,7.65
2023-04-01T09:36:49.569Z,6.97
2023-04-01T09:39:40.072Z,7.32
2023-04-01T09:42:45.554Z,7.38
2023-04-01T09:45:31.874Z,8.38
2023-04-01T09:50:47.444Z,6.55
2023-04-01T09:53:38.098Z,8.32
2023-04-01T09:56:43.604Z,11.32
2023-04-01T09:59:47.755Z,8.38
2023-04-01T10:02:59.140Z,7.18
2023-04-01T10:06:13.130Z,10.00
2023-04-01T10:09:21.394Z,7.25
2023-04-01T10:12:15.618Z,6.55
2023-04-01T10:15:21.165Z,7.65
2023-04-01T10:18:37.111Z,7.20
2023-04-01T10:21:26.615Z,6.97
2023-04-01T10:24:22.198Z,4.35
2023-04-01T10:27:19.934Z,4.38
2023-04-01T10:30:33.136Z,4.15
2023-04-01T10:33:27.685Z,4.68
2023-04-01T10:36:51.031Z,4.18
2023-04-01T10:39:37.820Z,5.15
2023-04-01T10:42:49.577Z,4.60
2023-04-01T10:45:50.122Z,4.47
2023-04-01T10:48:54.531Z,5.55
2023-04-01T10:51:52.870Z,5.85
2023-04-01T10:54:33.334Z,6.57
2023-04-01T10:57:06.359Z,4.82
2023-04-01T10:59:55.359Z,5.90
2023-04-01T11:03:04.371Z,5.32
2023-04-01T11:06:02.407Z,5.72
2023-04-01T11:09:14.982Z,4.65
2023-04-01T11:12:28.071Z,5.07
2023-04-01T11:15:27.747Z,4.95
2023-04-01T11:18:17.274Z,5.32
2023-04-01T11:21:16.826Z,5.45
2023-04-01T11:24:04.897Z,5.32
2023-04-01T11:26:51.474Z,5.40
2023-04-01T11:29:59.141Z,8.07
2023-04-01T11:32:43.921Z,4.57
2023-04-01T11:35:39.730Z,5.97
2023-04-01T11:38:23.487Z,6.30
2023-04-01T11:41:03.787Z,4.85
2023-04-01T11:43:38.710Z,4.82
2023-04-01T11:46:14.533Z,3.53
2023-04-01T11:49:06.704Z,3.78
2023-04-01T11:51:59.858Z,4.85
2023-04-01T11:54:48.012Z,3.97
2023-04-01T11:57:47.391Z,4.88
2023-04-01T12:00:39.435Z,3.80
2023-04-01T12:03:32.314Z,4.45
2023-04-01T12:06:08.381Z,5.00
2023-04-01T12:08:48.124Z,5.47
2023-04-01T12:11:25.232Z,4.70
2023-04-01T12:14:06.234Z,5.07
2023-04-01T12:17:01.546Z,4.45
2023-04-01T12:19:41.946Z,3.88
2023-04-01T12:22:36.524Z,3.38
2023-04-01T12:25:22.530Z,2.72
2023-04-01T12:28:04.075Z,2.80
2023-04-01T12:30:59.595Z,3.47
2023-04-01T12:33:46.531Z,2.97
2023-04-01T12:36:38.474Z,3.97
2023-04-01T12:39:26.694Z,3.30
2023-04-01T12:42:03.739Z,3.20
2023-04-01T12:44:50.851Z,3.65
2023-04-01T12:47:57.519Z,3.80
2023-04-01T12:50:40.565Z,2.95
2023-04-01T12:53:26.310Z,2.90
2023-04-01T12:55:56.396Z,4.70
2023-04-01T12:58:58.410Z,3.72
2023-04-01T13:01:35.701Z,3.85
2023-04-01T13:04:48.685Z,3.80
2023-04-01T13:07:47.338Z,4.45
2023-04-01T13:10:32.005Z,4.72
2023-04-01T13:13:18.519Z,3.97
2023-04-01T13:18:30.914Z,4.40
2023-04-01T13:21:13.232Z,3.95
2023-04-01T13:23:59.930Z,4.07
2023-04-01T13:26:38.267Z,3.70
2023-04-01T13:29:15.071Z,3.75
2023-04-01T13:32:09.835Z,3.88
2023-04-01T13:34:55.158Z,4.28
2023-04-01T13:37:52.055Z,4.65
2023-04-01T13:40:46.794Z,4.75
2023-04-01T13:43:26.137Z,5.70
2023-04-01T13:46:20.319Z,4.60
2023-04-01T13:49:06.738Z,5.72
2023-04-01T13:54:50.474Z,6.22
2023-04-01T13:57:39.892Z,4.50
2023-04-01T14:00:28.911Z,4.32
2023-04-01T14:03:33.996Z,3.75
2023-04-01T14:06:31.325Z,5.72
2023-04-01T14:09:30.449Z,7.30
2023-04-01T14:12:12.262Z,6.15
2023-04-01T14:14:56.721Z,5.07
2023-04-01T14:17:45.709Z,5.75
2023-04-01T14:20:44.626Z,4.50
2023-04-01T14:23:39.964Z,5.32
2023-04-01T14:26:26.507Z,6.30
2023-04-01T14:31:51.407Z,5.18
2023-04-01T14:34:36.577Z,5.13
2023-04-01T14:37:16.957Z,4.53
2023-04-01T14:40:09.683Z,5.28
2023-04-01T14:42:58.532Z,5.45
2023-04-01T14:45:50.008Z,6.47
2023-04-01T14:48:33.049Z,5.97
2023-04-01T14:51:13.286Z,6.35
2023-04-01T14:53:47.536Z,7.65
2023-04-01T14:56:37.743Z,6.78
2023-04-01T14:59:12.974Z,7.13
2023-04-01T15:01:51.608Z,7.33
2023-04-01T15:04:47.459Z,6.65
2023-04-01T15:07:30.944Z,9.85
2023-04-01T15:10:20.820Z,8.35
2023-04-01T15:13:00.478Z,9.73
2023-04-01T15:15:46.330Z,10.07
2023-04-01T15:18:25.945Z,8.02
2023-04-01T15:21:28.766Z,8.50
2023-04-01T15:24:03.804Z,6.53
2023-04-01T15:26:54.393Z,7.32
2023-04-01T15:29:42.601Z,9.20
2023-04-01T15:32:20.867Z,11.05
2023-04-01T15:35:03.846Z,7.35
2023-04-01T15:37:42.191Z,10.15
2023-04-01T15:40:26.598Z,9.57
2023-04-01T15:43:08.984Z,10.18
2023-04-01T15:45:49.579Z,12.93
2023-04-01T15:48:35.655Z,12.27
2023-04-01T15:51:43.173Z,12.48
2023-04-01T15:57:19.171Z,13.65
2023-04-01T16:00:11.947Z,14.45
2023-04-01T16:02:50.994Z,13.20
2023-04-01T16:05:34.251Z,12.82
2023-04-01T16:08:36.506Z,12.43
2023-04-01T16:11:22.676Z,13.13
2023-04-01T16:14:02.325Z,12.70
2023-04-01T16:16:50.180Z,16.77
2023-04-01T16:19:41.146Z,12.85
2023-04-01T16:22:17.459Z,15.98
2023-04-01T16:24:55.390Z,18.13
2023-04-01T16:27:31.596Z,17.83
2023-04-01T16:30:07.063Z,19.02
2023-04-01T16:32:45.461Z,22.08
2023-04-01T16:35:28.265Z,18.67
2023-04-01T16:38:07.787Z,17.30
2023-04-01T16:40:47.184Z,20.42
2023-04-01T16:43:25.444Z,16.75
2023-04-01T16:46:16.266Z,18.60
2023-04-01T16:49:01.702Z,18.05
2023-04-01T16:51:40.643Z,18.52
2023-04-01T16:54:17.174Z,19.55
2023-04-01T16:56:54.253Z,23.63
2023-04-01T16:59:28.344Z,22.55
2023-04-01T17:02:05.633Z,21.85
2023-04-01T17:04:42.309Z,22.73
2023-04-01T17:07:24.377Z,23.52
2023-04-01T17:10:05.666Z,25.90
2023-04-01T17:12:52.757Z,28.30
2023-04-01T17:15:28.818Z,28.70
2023-04-01T17:20:47.214Z,50.95
2023-04-01T17:23:24.058Z,41.03
2023-04-01T17:26:14.729Z,29.25
2023-04-01T17:28:54.387Z,28.30
2023-04-01T17:31:46.313Z,45.08
2023-04-01T17:34:34.941Z,37.22
2023-04-01T17:37:20.862Z,34.65
2023-04-01T17:40:01.329Z,43.40
2023-04-01T17:42:43.667Z,24.90
2023-04-01T17:45:25.986Z,23.23
2023-04-01T17:48:07.267Z,29.85
2023-04-01T17:50:54.729Z,26.42
2023-04-01T17:53:39.051Z,34.35
2023-04-01T17:56:25.956Z,24.48
2023-04-01T17:59:03.258Z,30.95
2023-04-01T18:01:58.860Z,24.20
2023-04-01T18:04:41.892Z,26.20
2023-04-01T18:07:32.184Z,28.30
2023-04-01T18:10:17.633Z,30.98
2023-04-01T18:13:09.502Z,35.25
2023-04-01T18:15:46.291Z,30.35
2023-04-01T18:18:39.321Z,29.13
2023-04-01T18:21:16.326Z,19.58
2023-04-01T18:24:01.732Z,20.35
2023-04-01T18:26:35.896Z,20.88
2023-04-01T18:29:15.090Z,25.35
2023-04-01T18:31:49.530Z,29.00
2023-04-01T18:34:41.737Z,33.97
2023-04-01T18:37:25.495Z,27.23
2023-04-01T18:39:59.784Z,33.03
2023-04-01T18:42:41.488Z,39.42
2023-04-01T18:45:22.760Z,35.63
2023-04-01T18:48:03.792Z,38.28
2023-04-01T18:50:42.474Z,36.10
2023-04-01T18:53:23.705Z,39.53
2023-04-01T18:55:57.805Z,29.02
2023-04-01T18:58:33.074Z,35.15
2023-04-01T19:01:24.518Z,33.93
2023-04-01T19:04:06.840Z,36.75
2023-04-01T19:06:48.938Z,35.45
2023-04-01T19:09:26.540Z,36.05
2023-04-01T19:12:17.779Z,33.20
2023-04-01T19:14:57.633Z,35.63
2023-04-01T19:17:45.946Z,33.75
2023-04-01T19:20:25.150Z,33.67
2023-04-01T19:23:21.858Z,35.63
2023-04-01T19:25:54.856Z,37.05
2023-04-01T19:28:35.898Z,34.33
2023-04-01T19:31:20.899Z,34.22
2023-04-01T19:34:04.030Z,35.20
2023-04-01T19:36:40.203Z,34.25
2023-04-01T19:44:34.240Z,37.28
2023-04-01T19:47:11.769Z,36.22
2023-04-01T19:49:52.344Z,38.63
2023-04-01T19:52:26.814Z,33.70
2023-04-01T19:55:03.213Z,38.22
2023-04-01T19:57:42.463Z,40.92
2023-04-01T20:00:26.060Z,40.90
2023-04-01T20:03:16.180Z,33.15
2023-04-01T20:05:54.017Z,47.42
2023-04-01T20:08:37.068Z,49.53
2023-04-01T20:11:25.793Z,41.70
2023-04-01T20:14:05.655Z,47.38
2023-04-01T20:16:58.483Z,37.42
2023-04-01T20:19:37.646Z,32.60
2023-04-01T20:22:22.858Z,31.17
2023-04-01T20:24:53.047Z,37.60
2023-04-01T20:27:29.989Z,32.20
2023-04-01T20:30:16.861Z,38.25
2023-04-01T20:33:05.806Z,35.40
2023-04-01T20:35:46.486Z,39.65
2023-04-01T20:38:39.049Z,30.17
2023-04-01T20:41:17.100Z,37.38
2023-04-01T20:44:01.848Z,37.65
2023-04-01T20:46:39.168Z,35.22
2023-04-01T20:49:44.603Z,33.83
2023-04-01T20:52:37.201Z,27.13
2023-04-01T20:55:26.341Z,36.55
2023-04-01T20:58:10.502Z,35.08
2023-04-01T21:00:56.780Z,39.83
2023-04-01T21:03:45.599Z,36.70
2023-04-01T21:06:27.936Z,33.30
2023-04-01T21:09:22.085Z,29.60
2023-04-01T21:12:01.558Z,39.05
2023-04-01T21:14:53.889Z,38.45
2023-04-01T21:17:37.631Z,28.25
2023-04-01T21:20:20.807Z,35.08
2023-04-01T21:23:04.017Z,37.83
2023-04-01T21:25:58.157Z,20.08
2023-04-01T21:28:48.882Z,35.72
2023-04-01T21:31:54.115Z,34.03
2023-04-01T21:34:45.874Z,27.02
2023-04-01T21:37:39.696Z,30.92
2023-04-01T21:40:38.338Z,27.77
2023-04-01T21:43:25.122Z,24.10
2023-04-01T21:46:30.034Z,39.88
2023-04-01T21:49:18.988Z,38.85
2023-04-01T21:52:18.727Z,29.08
2023-04-01T21:55:27.290Z,45.13
2023-04-01T21:58:31.509Z,35.88
2023-04-01T22:01:13.880Z,29.02
2023-04-01T22:04:04.933Z,43.92
2023-04-01T22:06:41.429Z,42.70
2023-04-01T22:09:22.009Z,39.30
2023-04-01T22:11:58.535Z,28.15
2023-04-01T22:14:35.352Z,35.80
2023-04-01T22:17:14.769Z,37.47
2023-04-01T22:19:51.932Z,35.58
2023-04-01T22:22:26.024Z,31.63
2023-04-01T22:25:08.140Z,38.63
2023-04-01T22:27:46.198Z,42.60
2023-04-01T22:30:23.080Z,33.25
2023-04-01T22:32:56.829Z,23.27
2023-04-01T22:35:39.509Z,28.67
2023-04-01T22:38:24.886Z,32.20
2023-04-01T22:41:04.600Z,33.70
2023-04-01T22:43:41.554Z,37.72
2023-04-01T22:46:30.457Z,22.13
2023-04-01T22:49:10.654Z,33.20
2023-04-01T22:51:46.956Z,32.35
2023-04-01T22:54:25.623Z,33.58
2023-04-01T22:57:01.203Z,26.60
2023-04-01T22:59:38.768Z,33.47
2023-04-01T23:02:15.056Z,33.65
2023-04-01T23:04:47.643Z,21.00
2023-04-01T23:07:38.064Z,25.50
2023-04-01T23:10:15.869Z,19.95
2023-04-01T23:12:49.504Z,20.50
2023-04-01T23:15:20.266Z,19.48
2023-04-01T23:17:57.978Z,26.63
2023-04-01T23:20:36.409Z,18.00
2023-04-01T23:23:30.844Z,23.90
2023-04-01T23:26:09.473Z,28.92
2023-04-01T23:28:51.639Z,27.00
2023-04-01T23:31:38.306Z,24.55
2023-04-01T23:36:56.911Z,20.35
2023-04-01T23:39:30.432Z,24.35
2023-04-01T23:42:05.515Z,25.65
2023-04-01T23:44:39.293Z,28.60
2023-04-01T23:47:11.535Z,22.60
2023-04-01T23:49:44.118Z,21.27
2023-04-01T23:52:17.843Z,22.80
2023-04-01T23:54:53.305Z,25.17
2023-04-01T23:57:26.608Z,22.48
